sensor_id;sensor_type;location;lat;lon;timestamp;pressure;altitude;pressure_sealevel;temperature;humidity
5996;BME280;3026;53.612;7.278;2023-05-12T00:01:05;101671.09;;;11.81;100.00
5996;BME280;3026;53.612;7.278;2023-05-12T00:03:32;101673.81;;;11.81;100.00
5996;BME280;3026;53.612;7.278;2023-05-12T00:06:00;101660.16;;;11.81;100.00
5996;BME280;3026;53.612;7.278;2023-05-12T00:08:28;101659.00;;;11.83;100.00
5996;BME280;3026;53.612;7.278;2023-05-12T00:10:55;101645.50;;;11.82;100.00
5996;BME280;3026;53.612;7.278;2023-05-12T00:13:22;101638.16;;;11.82;100.00
5996;BME280;3026;53.612;7.278;2023-05-12T00:15:49;101648.06;;;11.83;100.00
5996;BME280;3026;53.612;7.278;2023-05-12T00:18:16;101653.38;;;11.85;100.00
5996;BME280;3026;53.612;7.278;2023-05-12T00:20:43;101659.69;;;11.85;100.00
5996;BME280;3026;53.612;7.278;2023-05-12T00:23:11;101664.31;;;11.85;100.00
5996;BME280;3026;53.612;7.278;2023-05-12T00:25:38;101667.03;;;11.85;100.00
5996;BME280;3026;53.612;7.278;2023-05-12T00:28:05;101668.75;;;11.86;100.00
5996;BME280;3026;53.612;7.278;2023-05-12T00:30:31;101669.59;;;11.86;100.00
5996;BME280;3026;53.612;7.278;2023-05-12T00:32:58;101670.47;;;11.87;100.00
5996;BME280;3026;53.612;7.278;2023-05-12T00:35:25;101662.94;;;11.89;100.00
5996;BME280;3026;53.612;7.278;2023-05-12T00:37:52;101662.94;;;11.89;100.00
5996;BME280;3026;53.612;7.278;2023-05-12T00:40:21;101671.84;;;11.91;100.00
5996;BME280;3026;53.612;7.278;2023-05-12T00:42:47;101668.09;;;11.92;100.00
5996;BME280;3026;53.612;7.278;2023-05-12T00:45:15;101658.91;;;11.93;100.00
5996;BME280;3026;53.612;7.278;2023-05-12T00:47:42;101659.75;;;11.93;100.00
5996;BME280;3026;53.612;7.278;2023-05-12T00:50:09;101664.19;;;11.94;100.00
5996;BME280;3026;53.612;7.278;2023-05-12T00:52:36;101673.25;;;11.95;100.00
5996;BME280;3026;53.612;7.278;2023-05-12T00:55:04;101665.75;;;11.97;100.00
5996;BME280;3026;53.612;7.278;2023-05-12T00:57:33;101663.00;;;11.97;100.00
5996;BME280;3026;53.612;7.278;2023-05-12T01:00:00;101666.59;;;11.97;100.00
5996;BME280;3026;53.612;7.278;2023-05-12T01:02:26;101663.69;;;11.99;100.00
5996;BME280;3026;53.612;7.278;2023-05-12T01:04:54;101661.97;;;11.98;100.00
5996;BME280;3026;53.612;7.278;2023-05-12T01:07:21;101663.69;;;11.99;100.00
5996;BME280;3026;53.612;7.278;2023-05-12T01:09:53;101663.69;;;11.99;100.00
5996;BME280;3026;53.612;7.278;2023-05-12T01:12:20;101667.28;;;12.00;100.00
5996;BME280;3026;53.612;7.278;2023-05-12T01:14:49;101673.59;;;12.00;100.00
5996;BME280;3026;53.612;7.278;2023-05-12T01:17:19;101671.72;;;12.01;100.00
5996;BME280;3026;53.612;7.278;2023-05-12T01:19:49;101672.59;;;12.01;100.00
5996;BME280;3026;53.612;7.278;2023-05-12T01:22:18;101666.25;;;12.01;100.00
5996;BME280;3026;53.612;7.278;2023-05-12T01:24:48;101670.53;;;12.03;100.00
5996;BME280;3026;53.612;7.278;2023-05-12T01:27:18;101665.06;;;12.03;100.00
5996;BME280;3026;53.612;7.278;2023-05-12T01:29:46;101665.06;;;12.03;100.00
5996;BME280;3026;53.612;7.278;2023-05-12T01:32:14;101665.06;;;12.03;100.00
5996;BME280;3026;53.612;7.278;2023-05-12T01:34:42;101663.38;;;12.02;100.00
5996;BME280;3026;53.612;7.278;2023-05-12T01:37:08;101663.38;;;12.02;100.00
5996;BME280;3026;53.612;7.278;2023-05-12T01:39:35;101661.66;;;12.01;100.00
5996;BME280;3026;53.612;7.278;2023-05-12T01:42:03;101669.69;;;12.03;100.00
5996;BME280;3026;53.612;7.278;2023-05-12T01:44:31;101666.81;;;12.04;100.00
5996;BME280;3026;53.612;7.278;2023-05-12T01:46:58;101673.13;;;12.05;100.00
5996;BME280;3026;53.612;7.278;2023-05-12T01:49:25;101669.56;;;12.04;100.00
5996;BME280;3026;53.612;7.278;2023-05-12T01:51:52;101670.53;;;12.03;100.00
5996;BME280;3026;53.612;7.278;2023-05-12T01:54:19;101680.31;;;12.06;100.00
5996;BME280;3026;53.612;7.278;2023-05-12T01:56:46;101682.19;;;12.05;100.00
5996;BME280;3026;53.612;7.278;2023-05-12T01:59:13;101681.19;;;12.06;100.00
5996;BME280;3026;53.612;7.278;2023-05-12T02:01:41;101679.47;;;12.05;100.00
5996;BME280;3026;53.612;7.278;2023-05-12T02:04:07;101687.66;;;12.05;100.00
5996;BME280;3026;53.612;7.278;2023-05-12T02:06:34;101688.34;;;12.07;100.00
5996;BME280;3026;53.612;7.278;2023-05-12T02:09:01;101683.22;;;12.04;100.00
5996;BME280;3026;53.612;7.278;2023-05-12T02:11:29;101692.09;;;12.06;100.00
5996;BME280;3026;53.612;7.278;2023-05-12T02:13:56;101678.91;;;12.02;100.00
5996;BME280;3026;53.612;7.278;2023-05-12T02:16:22;101689.69;;;12.03;100.00
5996;BME280;3026;53.612;7.278;2023-05-12T02:18:51;101699.63;;;12.04;100.00
5996;BME280;3026;53.612;7.278;2023-05-12T02:21:17;101711.41;;;12.05;100.00
5996;BME280;3026;53.612;7.278;2023-05-12T02:23:44;101703.34;;;12.03;100.00
5996;BME280;3026;53.612;7.278;2023-05-12T02:26:11;101708.81;;;12.03;100.00
5996;BME280;3026;53.612;7.278;2023-05-12T02:28:38;101700.78;;;12.02;100.00
5996;BME280;3026;53.612;7.278;2023-05-12T02:31:05;101700.25;;;11.98;100.00
5996;BME280;3026;53.612;7.278;2023-05-12T02:33:32;101698.53;;;11.97;100.00
5996;BME280;3026;53.612;7.278;2023-05-12T02:36:00;101692.53;;;11.93;100.00
5996;BME280;3026;53.612;7.278;2023-05-12T02:38:26;101697.28;;;11.91;100.00
5996;BME280;3026;53.612;7.278;2023-05-12T02:40:53;101689.41;;;11.88;100.00
5996;BME280;3026;53.612;7.278;2023-05-12T02:43:20;101697.78;;;11.87;100.00
5996;BME280;3026;53.612;7.278;2023-05-12T02:45:47;101687.19;;;11.84;100.00
5996;BME280;3026;53.612;7.278;2023-05-12T02:48:14;101696.41;;;11.83;100.00
5996;BME280;3026;53.612;7.278;2023-05-12T02:50:41;101692.94;;;11.81;100.00
5996;BME280;3026;53.612;7.278;2023-05-12T02:53:09;101691.22;;;11.80;100.00
5996;BME280;3026;53.612;7.278;2023-05-12T02:55:36;101694.94;;;11.79;100.00
5996;BME280;3026;53.612;7.278;2023-05-12T02:58:03;101702.44;;;11.77;100.00
5996;BME280;3026;53.612;7.278;2023-05-12T03:00:29;101694.75;;;11.72;100.00
5996;BME280;3026;53.612;7.278;2023-05-12T03:02:56;101693.91;;;11.72;100.00
5996;BME280;3026;53.612;7.278;2023-05-12T03:05:23;101703.13;;;11.71;100.00
5996;BME280;3026;53.612;7.278;2023-05-12T03:07:53;101694.19;;;11.68;100.00
5996;BME280;3026;53.612;7.278;2023-05-12T03:10:21;101705.13;;;11.68;100.00
5996;BME280;3026;53.612;7.278;2023-05-12T03:12:48;101701.69;;;11.66;100.00
5996;BME280;3026;53.612;7.278;2023-05-12T03:15:15;101707.16;;;11.66;100.00
5996;BME280;3026;53.612;7.278;2023-05-12T03:17:41;101698.25;;;11.64;100.00
5996;BME280;3026;53.612;7.278;2023-05-12T03:20:09;101697.41;;;11.64;100.00
5996;BME280;3026;53.612;7.278;2023-05-12T03:22:36;101694.84;;;11.62;100.00
5996;BME280;3026;53.612;7.278;2023-05-12T03:25:04;101698.59;;;11.61;100.00
5996;BME280;3026;53.612;7.278;2023-05-12T03:27:32;101690.84;;;11.57;100.00
5996;BME280;3026;53.612;7.278;2023-05-12T03:29:59;101706.09;;;11.59;100.00
5996;BME280;3026;53.612;7.278;2023-05-12T03:32:26;101705.38;;;11.57;100.00
5996;BME280;3026;53.612;7.278;2023-05-12T03:34:53;101719.34;;;11.54;100.00
5996;BME280;3026;53.612;7.278;2023-05-12T03:37:20;101714.22;;;11.51;100.00
5996;BME280;3026;53.612;7.278;2023-05-12T03:39:47;101721.72;;;11.49;100.00
5996;BME280;3026;53.612;7.278;2023-05-12T03:42:14;101723.75;;;11.47;100.00
5996;BME280;3026;53.612;7.278;2023-05-12T03:44:42;101720.44;;;11.44;100.00
5996;BME280;3026;53.612;7.278;2023-05-12T03:47:09;101716.84;;;11.43;100.00
5996;BME280;3026;53.612;7.278;2023-05-12T03:49:36;101709.84;;;11.40;100.00
5996;BME280;3026;53.612;7.278;2023-05-12T03:52:03;101705.41;;;11.39;100.00
5996;BME280;3026;53.612;7.278;2023-05-12T03:54:30;101717.19;;;11.40;100.00
5996;BME280;3026;53.612;7.278;2023-05-12T03:56:57;101726.06;;;11.42;100.00
5996;BME280;3026;53.612;7.278;2023-05-12T03:59:24;101722.66;;;11.40;100.00
5996;BME280;3026;53.612;7.278;2023-05-12T04:01:52;101720.59;;;11.42;100.00
5996;BME280;3026;53.612;7.278;2023-05-12T04:04:19;101720.59;;;11.42;100.00
5996;BME280;3026;53.612;7.278;2023-05-12T04:06:45;101727.78;;;11.43;100.00
5996;BME280;3026;53.612;7.278;2023-05-12T04:09:12;101730.34;;;11.45;100.00
5996;BME280;3026;53.612;7.278;2023-05-12T04:11:39;101732.97;;;11.46;100.00
5996;BME280;3026;53.612;7.278;2023-05-12T04:14:06;101734.50;;;11.49;100.00
5996;BME280;3026;53.612;7.278;2023-05-12T04:16:32;101742.53;;;11.50;100.00
5996;BME280;3026;53.612;7.278;2023-05-12T04:19:01;101737.78;;;11.52;100.00
5996;BME280;3026;53.612;7.278;2023-05-12T04:21:28;101739.16;;;11.56;100.00
5996;BME280;3026;53.612;7.278;2023-05-12T04:23:55;101744.63;;;11.56;100.00
5996;BME280;3026;53.612;7.278;2023-05-12T04:26:22;101753.53;;;11.58;100.00
5996;BME280;3026;53.612;7.278;2023-05-12T04:28:49;101746.06;;;11.60;100.00
5996;BME280;3026;53.612;7.278;2023-05-12T04:31:16;101750.50;;;11.61;100.00
5996;BME280;3026;53.612;7.278;2023-05-12T04:33:42;101751.19;;;11.63;100.00
5996;BME280;3026;53.612;7.278;2023-05-12T04:36:11;101751.03;;;11.65;100.00
5996;BME280;3026;53.612;7.278;2023-05-12T04:38:38;101750.88;;;11.66;100.00
5996;BME280;3026;53.612;7.278;2023-05-12T04:41:06;101754.28;;;11.68;100.00
5996;BME280;3026;53.612;7.278;2023-05-12T04:43:32;101754.00;;;11.72;100.00
5996;BME280;3026;53.612;7.278;2023-05-12T04:45:59;101759.47;;;11.72;100.00
5996;BME280;3026;53.612;7.278;2023-05-12T04:48:26;101768.34;;;11.74;100.00
5996;BME280;3026;53.612;7.278;2023-05-12T04:50:53;101772.47;;;11.78;100.00
5996;BME280;3026;53.612;7.278;2023-05-12T04:53:21;101778.38;;;11.83;100.00
5996;BME280;3026;53.612;7.278;2023-05-12T04:55:48;101780.09;;;11.84;100.00
5996;BME280;3026;53.612;7.278;2023-05-12T04:58:15;101786.94;;;11.88;100.00
5996;BME280;3026;53.612;7.278;2023-05-12T05:00:42;101782.00;;;11.91;100.00
5996;BME280;3026;53.612;7.278;2023-05-12T05:03:09;101773.97;;;11.90;100.00
5996;BME280;3026;53.612;7.278;2023-05-12T05:05:36;101791.78;;;11.94;100.00
5996;BME280;3026;53.612;7.278;2023-05-12T05:08:03;101786.00;;;11.97;100.00
5996;BME280;3026;53.612;7.278;2023-05-12T05:10:31;101792.16;;;11.99;100.00
5996;BME280;3026;53.612;7.278;2023-05-12T05:12:58;101796.28;;;12.03;100.00
5996;BME280;3026;53.612;7.278;2023-05-12T05:15:25;101805.22;;;12.05;100.00
5996;BME280;3026;53.612;7.278;2023-05-12T05:17:52;101802.31;;;12.07;100.00
5996;BME280;3026;53.612;7.278;2023-05-12T05:20:19;101811.22;;;12.09;100.00
5996;BME280;3026;53.612;7.278;2023-05-12T05:22:46;101804.56;;;12.11;100.00
5996;BME280;3026;53.612;7.278;2023-05-12T05:25:13;101808.00;;;12.13;100.00
5996;BME280;3026;53.612;7.278;2023-05-12T05:27:42;101809.56;;;12.16;100.00
5996;BME280;3026;53.612;7.278;2023-05-12T05:30:09;101803.59;;;12.20;100.00
5996;BME280;3026;53.612;7.278;2023-05-12T05:32:36;101811.47;;;12.23;100.00
5996;BME280;3026;53.612;7.278;2023-05-12T05:35:05;101813.88;;;12.26;100.00
5996;BME280;3026;53.612;7.278;2023-05-12T05:37:32;101813.59;;;12.30;100.00
5996;BME280;3026;53.612;7.278;2023-05-12T05:39:59;101821.47;;;12.33;100.00
5996;BME280;3026;53.612;7.278;2023-05-12T05:42:26;101816.38;;;12.38;100.00
5996;BME280;3026;53.612;7.278;2023-05-12T05:44:54;101815.03;;;12.42;100.00
5996;BME280;3026;53.612;7.278;2023-05-12T05:47:21;101828.38;;;12.45;100.00
5996;BME280;3026;53.612;7.278;2023-05-12T05:49:48;101823.44;;;12.48;100.00
5996;BME280;3026;53.612;7.278;2023-05-12T05:52:15;101825.72;;;12.53;100.00
5996;BME280;3026;53.612;7.278;2023-05-12T05:54:41;101832.56;;;12.57;100.00
5996;BME280;3026;53.612;7.278;2023-05-12T05:57:08;101825.75;;;12.61;100.00
5996;BME280;3026;53.612;7.278;2023-05-12T05:59:35;101830.91;;;12.64;100.00
5996;BME280;3026;53.612;7.278;2023-05-12T06:02:04;101840.50;;;12.68;100.00
5996;BME280;3026;53.612;7.278;2023-05-12T06:04:31;101840.16;;;12.71;100.00
5996;BME280;3026;53.612;7.278;2023-05-12T06:06:57;101845.34;;;12.74;100.00
5996;BME280;3026;53.612;7.278;2023-05-12T06:09:24;101842.28;;;12.77;100.00
5996;BME280;3026;53.612;7.278;2023-05-12T06:11:51;101851.88;;;12.81;100.00
5996;BME280;3026;53.612;7.278;2023-05-12T06:14:18;101850.53;;;12.85;100.00
5996;BME280;3026;53.612;7.278;2023-05-12T06:16:44;101873.13;;;12.88;100.00
5996;BME280;3026;53.612;7.278;2023-05-12T06:19:13;101878.78;;;12.94;100.00
5996;BME280;3026;53.612;7.278;2023-05-12T06:21:40;101856.59;;;12.97;100.00
5996;BME280;3026;53.612;7.278;2023-05-12T06:24:07;101851.63;;;13.01;100.00
5996;BME280;3026;53.612;7.278;2023-05-12T06:26:33;101851.28;;;13.04;100.00
5996;BME280;3026;53.612;7.278;2023-05-12T06:29:01;101855.41;;;13.08;100.00
5996;BME280;3026;53.612;7.278;2023-05-12T06:31:28;101852.03;;;13.14;100.00
5996;BME280;3026;53.612;7.278;2023-05-12T06:33:55;101860.31;;;13.22;100.00
5996;BME280;3026;53.612;7.278;2023-05-12T06:36:23;101862.22;;;13.30;100.00
5996;BME280;3026;53.612;7.278;2023-05-12T06:38:50;101850.78;;;13.34;100.00
5996;BME280;3026;53.612;7.278;2023-05-12T06:41:18;101858.13;;;13.42;100.00
5996;BME280;3026;53.612;7.278;2023-05-12T06:43:46;101865.03;;;13.46;100.00
5996;BME280;3026;53.612;7.278;2023-05-12T06:46:13;101861.94;;;13.49;100.00
5996;BME280;3026;53.612;7.278;2023-05-12T06:48:40;101856.13;;;13.52;100.00
5996;BME280;3026;53.612;7.278;2023-05-12T06:51:06;101854.59;;;13.58;100.00
5996;BME280;3026;53.612;7.278;2023-05-12T06:53:35;101855.97;;;13.62;100.00
5996;BME280;3026;53.612;7.278;2023-05-12T06:56:02;101863.72;;;13.66;100.00
5996;BME280;3026;53.612;7.278;2023-05-12T06:58:29;101872.09;;;13.73;100.00
5996;BME280;3026;53.612;7.278;2023-05-12T07:00:56;101876.56;;;13.74;100.00
5996;BME280;3026;53.612;7.278;2023-05-12T07:03:23;101879.66;;;13.79;100.00
5996;BME280;3026;53.612;7.278;2023-05-12T07:05:50;101884.81;;;13.82;100.00
5996;BME280;3026;53.612;7.278;2023-05-12T07:08:19;101882.75;;;13.84;100.00
5996;BME280;3026;53.612;7.278;2023-05-12T07:10:47;101874.34;;;13.86;100.00
5996;BME280;3026;53.612;7.278;2023-05-12T07:13:14;101876.59;;;13.90;100.00
5996;BME280;3026;53.612;7.278;2023-05-12T07:15:41;101880.03;;;13.92;100.00
5996;BME280;3026;53.612;7.278;2023-05-12T07:18:08;101887.22;;;13.93;100.00
5996;BME280;3026;53.612;7.278;2023-05-12T07:20:35;101881.22;;;13.98;100.00
5996;BME280;3026;53.612;7.278;2023-05-12T07:23:02;101889.97;;;14.01;100.00
5996;BME280;3026;53.612;7.278;2023-05-12T07:25:29;101887.91;;;14.04;100.00
5996;BME280;3026;53.612;7.278;2023-05-12T07:27:57;101887.56;;;14.07;100.00
5996;BME280;3026;53.612;7.278;2023-05-12T07:30:24;101888.94;;;14.11;100.00
5996;BME280;3026;53.612;7.278;2023-05-12T07:32:51;101886.38;;;14.17;100.00
5996;BME280;3026;53.612;7.278;2023-05-12T07:35:17;101891.34;;;14.22;100.00
5996;BME280;3026;53.612;7.278;2023-05-12T07:37:44;101889.81;;;14.27;100.00
5996;BME280;3026;53.612;7.278;2023-05-12T07:40:11;101891.84;;;14.34;100.00
5996;BME280;3026;53.612;7.278;2023-05-12T07:42:38;101896.00;;;14.38;100.00
5996;BME280;3026;53.612;7.278;2023-05-12T07:45:07;101894.09;;;14.46;100.00
5996;BME280;3026;53.612;7.278;2023-05-12T07:47:34;101890.00;;;14.50;100.00
5996;BME280;3026;53.612;7.278;2023-05-12T07:50:01;101884.16;;;14.53;100.00
5996;BME280;3026;53.612;7.278;2023-05-12T07:52:28;101887.09;;;14.60;100.00
5996;BME280;3026;53.612;7.278;2023-05-12T07:54:55;101889.97;;;14.67;100.00
5996;BME280;3026;53.612;7.278;2023-05-12T07:57:22;101897.84;;;14.78;100.00
5996;BME280;3026;53.612;7.278;2023-05-12T07:59:48;101889.97;;;14.83;100.00
5996;BME280;3026;53.612;7.278;2023-05-12T08:02:17;101891.63;;;14.92;100.00
5996;BME280;3026;53.612;7.278;2023-05-12T08:04:44;101902.25;;;15.03;100.00
5996;BME280;3026;53.612;7.278;2023-05-12T08:07:11;101902.59;;;15.16;100.00
5996;BME280;3026;53.612;7.278;2023-05-12T08:09:38;101907.34;;;15.23;100.00
5996;BME280;3026;53.612;7.278;2023-05-12T08:12:05;101897.69;;;15.27;100.00
5996;BME280;3026;53.612;7.278;2023-05-12T08:14:32;101910.56;;;15.34;100.00
5996;BME280;3026;53.612;7.278;2023-05-12T08:16:58;101917.94;;;15.42;100.00
5996;BME280;3026;53.612;7.278;2023-05-12T08:19:26;101907.22;;;15.55;100.00
5996;BME280;3026;53.612;7.278;2023-05-12T08:21:53;101908.75;;;15.66;100.00
5996;BME280;3026;53.612;7.278;2023-05-12T08:24:20;101905.91;;;15.74;100.00
5996;BME280;3026;53.612;7.278;2023-05-12T08:26:47;101907.78;;;15.82;100.00
5996;BME280;3026;53.612;7.278;2023-05-12T08:29:14;101912.91;;;15.85;100.00
5996;BME280;3026;53.612;7.278;2023-05-12T08:31:41;101910.13;;;15.93;100.00
5996;BME280;3026;53.612;7.278;2023-05-12T08:34:07;101921.38;;;16.06;100.00
5996;BME280;3026;53.612;7.278;2023-05-12T08:36:36;101919.91;;;16.18;100.00
5996;BME280;3026;53.612;7.278;2023-05-12T08:39:03;101916.38;;;16.32;100.00
5996;BME280;3026;53.612;7.278;2023-05-12T08:41:38;101909.75;;;16.42;100.00
5996;BME280;3026;53.612;7.278;2023-05-12T08:44:08;101916.22;;;16.49;100.00
5996;BME280;3026;53.612;7.278;2023-05-12T08:46:36;101919.59;;;16.59;100.00
5996;BME280;3026;53.612;7.278;2023-05-12T08:49:03;101922.59;;;16.72;100.00
5996;BME280;3026;53.612;7.278;2023-05-12T08:51:31;101931.13;;;16.77;100.00
5996;BME280;3026;53.612;7.278;2023-05-12T08:54:00;101928.03;;;16.95;100.00
5996;BME280;3026;53.612;7.278;2023-05-12T08:56:29;101931.94;;;17.01;100.00
5996;BME280;3026;53.612;7.278;2023-05-12T08:58:56;101924.91;;;17.13;100.00
5996;BME280;3026;53.612;7.278;2023-05-12T09:01:23;101928.94;;;17.25;100.00
5996;BME280;3026;53.612;7.278;2023-05-12T09:03:51;101934.69;;;17.45;100.00
5996;BME280;3026;53.612;7.278;2023-05-12T09:06:18;101939.06;;;17.69;100.00
5996;BME280;3026;53.612;7.278;2023-05-12T09:08:45;101939.34;;;17.74;100.00
5996;BME280;3026;53.612;7.278;2023-05-12T09:11:15;101941.91;;;17.75;100.00
5996;BME280;3026;53.612;7.278;2023-05-12T09:13:49;101944.75;;;17.82;100.00
5996;BME280;3026;53.612;7.278;2023-05-12T09:16:19;101945.38;;;17.99;100.00
5996;BME280;3026;53.612;7.278;2023-05-12T09:18:50;101944.88;;;18.10;100.00
5996;BME280;3026;53.612;7.278;2023-05-12T09:21:17;101961.13;;;18.20;100.00
5996;BME280;3026;53.612;7.278;2023-05-12T09:23:54;101954.69;;;18.34;100.00
5996;BME280;3026;53.612;7.278;2023-05-12T09:26:24;101963.22;;;18.60;100.00
5996;BME280;3026;53.612;7.278;2023-05-12T09:28:52;101955.75;;;18.76;100.00
5996;BME280;3026;53.612;7.278;2023-05-12T09:31:20;101961.53;;;18.81;100.00
5996;BME280;3026;53.612;7.278;2023-05-12T09:33:48;101955.44;;;18.92;100.00
5996;BME280;3026;53.612;7.278;2023-05-12T09:36:19;101968.72;;;19.03;100.00
5996;BME280;3026;53.612;7.278;2023-05-12T09:38:57;101959.47;;;19.17;100.00
5996;BME280;3026;53.612;7.278;2023-05-12T09:41:26;101967.25;;;19.42;100.00
5996;BME280;3026;53.612;7.278;2023-05-12T09:43:53;101967.25;;;19.76;100.00
5996;BME280;3026;53.612;7.278;2023-05-12T09:46:20;101959.44;;;19.87;100.00
5996;BME280;3026;53.612;7.278;2023-05-12T09:48:47;101963.72;;;19.96;100.00
5996;BME280;3026;53.612;7.278;2023-05-12T09:51:16;101968.06;;;20.18;100.00
5996;BME280;3026;53.612;7.278;2023-05-12T09:53:43;101966.78;;;20.21;100.00
5996;BME280;3026;53.612;7.278;2023-05-12T09:56:12;101969.41;;;20.49;100.00
5996;BME280;3026;53.612;7.278;2023-05-12T09:58:41;101971.81;;;20.65;100.00
5996;BME280;3026;53.612;7.278;2023-05-12T10:01:09;101973.69;;;20.58;100.00
5996;BME280;3026;53.612;7.278;2023-05-12T10:03:39;101969.66;;;20.67;100.00
5996;BME280;3026;53.612;7.278;2023-05-12T10:06:09;101976.72;;;20.76;100.00
5996;BME280;3026;53.612;7.278;2023-05-12T10:08:41;101975.66;;;20.97;100.00
5996;BME280;3026;53.612;7.278;2023-05-12T10:11:09;101965.41;;;20.97;100.00
5996;BME280;3026;53.612;7.278;2023-05-12T10:13:37;101961.31;;;21.07;100.00
5996;BME280;3026;53.612;7.278;2023-05-12T10:16:06;101969.44;;;21.21;100.00
5996;BME280;3026;53.612;7.278;2023-05-12T10:18:33;101968.56;;;21.47;100.00
5996;BME280;3026;53.612;7.278;2023-05-12T10:21:02;101965.09;;;21.59;100.00
5996;BME280;3026;53.612;7.278;2023-05-12T10:23:30;101971.97;;;21.49;100.00
5996;BME280;3026;53.612;7.278;2023-05-12T10:25:57;101968.50;;;21.61;100.00
5996;BME280;3026;53.612;7.278;2023-05-12T10:28:26;101967.66;;;21.67;100.00
5996;BME280;3026;53.612;7.278;2023-05-12T10:30:53;101976.16;;;21.72;100.00
5996;BME280;3026;53.612;7.278;2023-05-12T10:33:23;101971.19;;;21.87;100.00
5996;BME280;3026;53.612;7.278;2023-05-12T10:35:51;101976.50;;;21.95;100.00
5996;BME280;3026;53.612;7.278;2023-05-12T10:38:18;101980.72;;;22.04;100.00
5996;BME280;3026;53.612;7.278;2023-05-12T10:40:50;101973.94;;;22.00;100.00
5996;BME280;3026;53.612;7.278;2023-05-12T10:43:21;101971.72;;;22.16;100.00
5996;BME280;3026;53.612;7.278;2023-05-12T10:46:13;101975.91;;;22.31;100.00
5996;BME280;3026;53.612;7.278;2023-05-12T10:48:54;101980.72;;;22.49;100.00
5996;BME280;3026;53.612;7.278;2023-05-12T10:51:22;101979.19;;;22.53;100.00
5996;BME280;3026;53.612;7.278;2023-05-12T10:53:58;101988.84;;;22.76;100.00
5996;BME280;3026;53.612;7.278;2023-05-12T10:56:27;101985.72;;;22.97;100.00
5996;BME280;3026;53.612;7.278;2023-05-12T10:59:09;101987.66;;;22.96;100.00
5996;BME280;3026;53.612;7.278;2023-05-12T11:01:37;101987.53;;;22.85;100.00
5996;BME280;3026;53.612;7.278;2023-05-12T11:04:16;101997.31;;;22.94;100.00
5996;BME280;3026;53.612;7.278;2023-05-12T11:06:43;101992.53;;;23.01;100.00
5996;BME280;3026;53.612;7.278;2023-05-12T11:09:10;101983.31;;;23.25;100.00
5996;BME280;3026;53.612;7.278;2023-05-12T11:11:37;101986.13;;;23.44;100.00
5996;BME280;3026;53.612;7.278;2023-05-12T11:14:06;101983.47;;;23.49;100.00
5996;BME280;3026;53.612;7.278;2023-05-12T11:16:40;101980.09;;;23.47;100.00
5996;BME280;3026;53.612;7.278;2023-05-12T11:19:07;101982.41;;;23.50;100.00
5996;BME280;3026;53.612;7.278;2023-05-12T11:21:36;101989.06;;;23.49;100.00
5996;BME280;3026;53.612;7.278;2023-05-12T11:24:03;101990.75;;;23.50;100.00
5996;BME280;3026;53.612;7.278;2023-05-12T11:26:30;101991.63;;;23.50;100.00
5996;BME280;3026;53.612;7.278;2023-05-12T11:28:57;101981.34;;;23.51;100.00
5996;BME280;3026;53.612;7.278;2023-05-12T11:31:24;101978.75;;;23.49;100.00
5996;BME280;3026;53.612;7.278;2023-05-12T11:34:01;101984.75;;;23.53;100.00
5996;BME280;3026;53.612;7.278;2023-05-12T11:36:28;101986.22;;;23.55;100.00
5996;BME280;3026;53.612;7.278;2023-05-12T11:39:02;101990.50;;;23.76;100.00
5996;BME280;3026;53.612;7.278;2023-05-12T11:41:30;101989.56;;;23.82;100.00
5996;BME280;3026;53.612;7.278;2023-05-12T11:43:57;102005.34;;;23.70;100.00
5996;BME280;3026;53.612;7.278;2023-05-12T11:46:25;102003.81;;;23.49;100.00
5996;BME280;3026;53.612;7.278;2023-05-12T11:48:55;102002.16;;;23.23;100.00
5996;BME280;3026;53.612;7.278;2023-05-12T11:51:22;102011.72;;;23.09;100.00
5996;BME280;3026;53.612;7.278;2023-05-12T11:53:51;102008.78;;;23.04;100.00
5996;BME280;3026;53.612;7.278;2023-05-12T11:56:20;102009.69;;;22.98;100.00
5996;BME280;3026;53.612;7.278;2023-05-12T11:58:52;102001.22;;;22.86;100.00
5996;BME280;3026;53.612;7.278;2023-05-12T12:01:19;102002.53;;;22.84;100.00
5996;BME280;3026;53.612;7.278;2023-05-12T12:03:46;102005.06;;;22.85;100.00
5996;BME280;3026;53.612;7.278;2023-05-12T12:06:14;102004.22;;;22.85;100.00
5996;BME280;3026;53.612;7.278;2023-05-12T12:08:48;102008.47;;;22.87;100.00
5996;BME280;3026;53.612;7.278;2023-05-12T12:11:16;102008.78;;;23.04;100.00
5996;BME280;3026;53.612;7.278;2023-05-12T12:13:48;102016.34;;;23.15;100.00
5996;BME280;3026;53.612;7.278;2023-05-12T12:16:21;102018.34;;;23.33;100.00
5996;BME280;3026;53.612;7.278;2023-05-12T12:18:48;102009.28;;;23.38;100.00
5996;BME280;3026;53.612;7.278;2023-05-12T12:21:15;102016.16;;;23.17;100.00
5996;BME280;3026;53.612;7.278;2023-05-12T12:23:42;102018.53;;;23.13;100.00
5996;BME280;3026;53.612;7.278;2023-05-12T12:26:09;102017.91;;;23.11;100.00
5996;BME280;3026;53.612;7.278;2023-05-12T12:28:35;102022.25;;;23.25;100.00
5996;BME280;3026;53.612;7.278;2023-05-12T12:31:04;102019.66;;;23.31;100.00
5996;BME280;3026;53.612;7.278;2023-05-12T12:33:30;102009.28;;;23.38;100.00
5996;BME280;3026;53.612;7.278;2023-05-12T12:35:57;102018.91;;;23.42;100.00
5996;BME280;3026;53.612;7.278;2023-05-12T12:38:24;102016.59;;;23.39;100.00
5996;BME280;3026;53.612;7.278;2023-05-12T12:40:51;102022.16;;;23.39;100.00
5996;BME280;3026;53.612;7.278;2023-05-12T12:43:17;102019.19;;;23.34;100.00
5996;BME280;3026;53.612;7.278;2023-05-12T12:45:44;102021.50;;;23.37;100.00
5996;BME280;3026;53.612;7.278;2023-05-12T12:48:12;102021.75;;;23.35;100.00
5996;BME280;3026;53.612;7.278;2023-05-12T12:50:39;102024.75;;;23.34;100.00
5996;BME280;3026;53.612;7.278;2023-05-12T12:53:06;102028.25;;;23.29;100.00
5996;BME280;3026;53.612;7.278;2023-05-12T12:55:34;102026.34;;;23.23;100.00
5996;BME280;3026;53.612;7.278;2023-05-12T12:58:00;102025.97;;;23.19;100.00
5996;BME280;3026;53.612;7.278;2023-05-12T13:00:27;102020.22;;;23.14;100.00
5996;BME280;3026;53.612;7.278;2023-05-12T13:02:54;102024.94;;;23.14;100.00